PWSweather.com
Personal Weather Stations
Station Observations
KIDNAMPA57
Canyon County Idaho, Nampa, ID 83687

Canyon County IdahoNampa, ID 83687

Lat: 43.587235, Lon: -116.49831979999999

Elevation: 2615

Station Type: Davis Vantage Pro 2

www.rockinglweather.com

High Low Average
Temperature 43.0°F6.1°C 25.7°F-3.5°C 32.4°F0.2°C
Dew Point 27.2°F-2.7°C 20.5°F-6.4°C 23.8°F-4.6°C
Winds 10.0 mph 16.1 kmh Calm Calm 2.0 mph S3.2 kmh S
Wind Gusts 10.0 mph16.1 kmh -- 5.0 mph8.0 kmh
Humidity 85% 49% 71%
Pressure 30.27 in1025.1 mb 30.13 in1020.3 mb -
Precipitation 0.00 in0.0 mm - -
Hour Temp Dew Point Humidity Winds Wind Gusts Pressure Precip Precip Rate Daily Precip Total
12:00 AM 32.7°F0.4°C 25.0°F-3.9°C 73% 5.0 mph SSE8.0 kmh SSE 9.0 mph14.5 kmh 30.25 in1024.4 mb 0.00 in0.0 mm 0.00 in0.0 mm 0.00 in0.0 mm
12:05 AM 32.5°F0.3°C 25.2°F-3.8°C 74% 8.0 mph SE12.9 kmh SE 8.0 mph12.9 kmh 30.25 in1024.4 mb 0.00 in0.0 mm 0.00 in0.0 mm 0.00 in0.0 mm
12:10 AM 32.3°F0.2°C 25.0°F-3.9°C 74% 4.0 mph SE6.4 kmh SE 8.0 mph12.9 kmh 30.25 in1024.4 mb 0.00 in0.0 mm 0.00 in0.0 mm 0.00 in0.0 mm
12:15 AM 32.3°F0.2°C 25.0°F-3.9°C 74% 1.0 mph SE1.6 kmh SE 8.0 mph12.9 kmh 30.25 in1024.4 mb 0.00 in0.0 mm 0.00 in0.0 mm 0.00 in0.0 mm
12:20 AM 32.4°F0.2°C 25.1°F-3.8°C 74% 5.0 mph SE8.0 kmh SE 8.0 mph12.9 kmh 30.24 in1024.0 mb 0.00 in0.0 mm 0.00 in0.0 mm 0.00 in0.0 mm
12:25 AM 32.3°F0.2°C 25.0°F-3.9°C 74% 3.0 mph SE4.8 kmh SE 8.0 mph12.9 kmh 30.24 in1024.0 mb 0.00 in0.0 mm 0.00 in0.0 mm 0.00 in0.0 mm
12:30 AM 32.3°F0.2°C 25.0°F-3.9°C 74% 4.0 mph SE6.4 kmh SE 8.0 mph12.9 kmh 30.24 in1024.0 mb 0.00 in0.0 mm 0.00 in0.0 mm 0.00 in0.0 mm
12:35 AM 32.1°F0.1°C 24.8°F-4.0°C 74% 5.0 mph SE8.0 kmh SE 7.0 mph11.3 kmh 30.24 in1024.0 mb 0.00 in0.0 mm 0.00 in0.0 mm 0.00 in0.0 mm
12:40 AM 31.8°F-0.1°C 24.8°F-4.0°C 75% 5.0 mph SE8.0 kmh SE 7.0 mph11.3 kmh 30.24 in1024.0 mb 0.00 in0.0 mm 0.00 in0.0 mm 0.00 in0.0 mm
12:45 AM 31.5°F-0.3°C 24.8°F-4.0°C 76% 4.0 mph SE6.4 kmh SE 7.0 mph11.3 kmh 30.24 in1024.0 mb 0.00 in0.0 mm 0.00 in0.0 mm 0.00 in0.0 mm
12:50 AM 31.3°F-0.4°C 24.6°F-4.1°C 76% 4.0 mph SE6.4 kmh SE 9.0 mph14.5 kmh 30.24 in1024.0 mb 0.00 in0.0 mm 0.00 in0.0 mm 0.00 in0.0 mm
12:55 AM 31.2°F-0.4°C 24.5°F-4.2°C 76% 3.0 mph SE4.8 kmh SE 9.0 mph14.5 kmh 30.24 in1024.0 mb 0.00 in0.0 mm 0.00 in0.0 mm 0.00 in0.0 mm
01:00 AM 30.9°F-0.6°C 24.2°F-4.3°C 76% 3.0 mph SE4.8 kmh SE 9.0 mph14.5 kmh 30.24 in1024.0 mb 0.00 in0.0 mm 0.00 in0.0 mm 0.00 in0.0 mm
01:05 AM 30.5°F-0.8°C 24.2°F-4.3°C 77% 5.0 mph SE8.0 kmh SE 7.0 mph11.3 kmh 30.24 in1024.0 mb 0.00 in0.0 mm 0.00 in0.0 mm 0.00 in0.0 mm
01:10 AM 30.2°F-1.0°C 24.2°F-4.3°C 78% 3.0 mph SE4.8 kmh SE 7.0 mph11.3 kmh 30.24 in1024.0 mb 0.00 in0.0 mm 0.00 in0.0 mm 0.00 in0.0 mm
01:15 AM 30.2°F-1.0°C 24.5°F-4.2°C 79% 5.0 mph SE8.0 kmh SE 7.0 mph11.3 kmh 30.24 in1024.0 mb 0.00 in0.0 mm 0.00 in0.0 mm 0.00 in0.0 mm
01:20 AM 30.1°F-1.1°C 24.4°F-4.2°C 79% 5.0 mph SE8.0 kmh SE 7.0 mph11.3 kmh 30.24 in1024.0 mb 0.00 in0.0 mm 0.00 in0.0 mm 0.00 in0.0 mm
01:25 AM 30.1°F-1.1°C 24.4°F-4.2°C 79% 4.0 mph SE6.4 kmh SE 7.0 mph11.3 kmh 30.24 in1024.0 mb 0.00 in0.0 mm 0.00 in0.0 mm 0.00 in0.0 mm
01:30 AM 29.9°F-1.2°C 24.2°F-4.3°C 79% 4.0 mph SE6.4 kmh SE 7.0 mph11.3 kmh 30.24 in1024.0 mb 0.00 in0.0 mm 0.00 in0.0 mm 0.00 in0.0 mm
01:35 AM 29.6°F-1.3°C 23.9°F-4.5°C 79% 4.0 mph SE6.4 kmh SE 6.0 mph9.7 kmh 30.24 in1024.0 mb 0.00 in0.0 mm 0.00 in0.0 mm 0.00 in0.0 mm
01:40 AM 29.6°F-1.3°C 23.9°F-4.5°C 79% 3.0 mph SE4.8 kmh SE 6.0 mph9.7 kmh 30.24 in1024.0 mb 0.00 in0.0 mm 0.00 in0.0 mm 0.00 in0.0 mm
01:45 AM 29.4°F-1.4°C 24.0°F-4.4°C 80% 4.0 mph SE6.4 kmh SE 6.0 mph9.7 kmh 30.24 in1024.0 mb 0.00 in0.0 mm 0.00 in0.0 mm 0.00 in0.0 mm
01:50 AM 29.3°F-1.5°C 23.9°F-4.5°C 80% 5.0 mph SE8.0 kmh SE 7.0 mph11.3 kmh 30.23 in1023.7 mb 0.00 in0.0 mm 0.00 in0.0 mm 0.00 in0.0 mm
01:55 AM 29.2°F-1.6°C 23.8°F-4.6°C 80% 3.0 mph SE4.8 kmh SE 7.0 mph11.3 kmh 30.23 in1023.7 mb 0.00 in0.0 mm 0.00 in0.0 mm 0.00 in0.0 mm
02:00 AM 29.3°F-1.5°C 23.9°F-4.5°C 80% 5.0 mph SE8.0 kmh SE 8.0 mph12.9 kmh 30.23 in1023.7 mb 0.00 in0.0 mm 0.00 in0.0 mm 0.00 in0.0 mm
02:05 AM 29.5°F-1.4°C 24.1°F-4.4°C 80% 4.0 mph SSE6.4 kmh SSE 9.0 mph14.5 kmh 30.23 in1023.7 mb 0.00 in0.0 mm 0.00 in0.0 mm 0.00 in0.0 mm
02:10 AM 29.6°F-1.3°C 24.2°F-4.3°C 80% 4.0 mph SE6.4 kmh SE 9.0 mph14.5 kmh 30.23 in1023.7 mb 0.00 in0.0 mm 0.00 in0.0 mm 0.00 in0.0 mm
02:15 AM 29.6°F-1.3°C 23.9°F-4.5°C 79% 5.0 mph SE8.0 kmh SE 9.0 mph14.5 kmh 30.23 in1023.7 mb 0.00 in0.0 mm 0.00 in0.0 mm 0.00 in0.0 mm
02:20 AM 29.5°F-1.4°C 23.8°F-4.6°C 79% 8.0 mph SE12.9 kmh SE 8.0 mph12.9 kmh 30.23 in1023.7 mb 0.00 in0.0 mm 0.00 in0.0 mm 0.00 in0.0 mm
02:25 AM 29.5°F-1.4°C 23.8°F-4.6°C 79% 5.0 mph S8.0 kmh S 8.0 mph12.9 kmh 30.23 in1023.7 mb 0.00 in0.0 mm 0.00 in0.0 mm 0.00 in0.0 mm
02:30 AM 29.6°F-1.3°C 23.9°F-4.5°C 79% 1.0 mph SE1.6 kmh SE 8.0 mph12.9 kmh 30.23 in1023.7 mb 0.00 in0.0 mm 0.00 in0.0 mm 0.00 in0.0 mm
02:35 AM 29.7°F-1.3°C 24.0°F-4.4°C 79% 5.0 mph SSE8.0 kmh SSE 8.0 mph12.9 kmh 30.23 in1023.7 mb 0.00 in0.0 mm 0.00 in0.0 mm 0.00 in0.0 mm
02:40 AM 29.8°F-1.2°C 24.1°F-4.4°C 79% 3.0 mph SE4.8 kmh SE 10.0 mph16.1 kmh 30.23 in1023.7 mb 0.00 in0.0 mm 0.00 in0.0 mm 0.00 in0.0 mm
02:45 AM 29.9°F-1.2°C 24.2°F-4.3°C 79% 2.0 mph SE3.2 kmh SE 10.0 mph16.1 kmh 30.23 in1023.7 mb 0.00 in0.0 mm 0.00 in0.0 mm 0.00 in0.0 mm
02:50 AM 29.6°F-1.3°C 23.9°F-4.5°C 79% 3.0 mph SE4.8 kmh SE 5.0 mph8.0 kmh 30.23 in1023.7 mb 0.00 in0.0 mm 0.00 in0.0 mm 0.00 in0.0 mm
02:55 AM 29.2°F-1.6°C 23.5°F-4.7°C 79% 2.0 mph SE3.2 kmh SE 5.0 mph8.0 kmh 30.23 in1023.7 mb 0.00 in0.0 mm 0.00 in0.0 mm 0.00 in0.0 mm
03:00 AM 28.9°F-1.7°C 23.5°F-4.7°C 80% 2.0 mph ESE3.2 kmh ESE 5.0 mph8.0 kmh 30.23 in1023.7 mb 0.00 in0.0 mm 0.00 in0.0 mm 0.00 in0.0 mm
03:05 AM 28.7°F-1.8°C 23.6°F-4.7°C 81% 2.0 mph SE3.2 kmh SE 6.0 mph9.7 kmh 30.23 in1023.7 mb 0.00 in0.0 mm 0.00 in0.0 mm 0.00 in0.0 mm
03:10 AM 28.6°F-1.9°C 23.5°F-4.7°C 81% 2.0 mph SSE3.2 kmh SSE 6.0 mph9.7 kmh 30.23 in1023.7 mb 0.00 in0.0 mm 0.00 in0.0 mm 0.00 in0.0 mm
03:15 AM 28.8°F-1.8°C 23.7°F-4.6°C 81% 6.0 mph SSE9.7 kmh SSE 8.0 mph12.9 kmh 30.23 in1023.7 mb 0.00 in0.0 mm 0.00 in0.0 mm 0.00 in0.0 mm
03:20 AM 29.0°F-1.7°C 23.6°F-4.7°C 80% 2.0 mph S3.2 kmh S 5.0 mph8.0 kmh 30.23 in1023.7 mb 0.00 in0.0 mm 0.00 in0.0 mm 0.00 in0.0 mm
03:25 AM 29.0°F-1.7°C 23.6°F-4.7°C 80% 3.0 mph SE4.8 kmh SE 5.0 mph8.0 kmh 30.23 in1023.7 mb 0.00 in0.0 mm 0.00 in0.0 mm 0.00 in0.0 mm
03:30 AM 28.9°F-1.7°C 23.2°F-4.9°C 79% 3.0 mph SSE4.8 kmh SSE 5.0 mph8.0 kmh 30.23 in1023.7 mb 0.00 in0.0 mm 0.00 in0.0 mm 0.00 in0.0 mm
03:35 AM 28.9°F-1.7°C 23.2°F-4.9°C 79% 4.0 mph SE6.4 kmh SE 6.0 mph9.7 kmh 30.23 in1023.7 mb 0.00 in0.0 mm 0.00 in0.0 mm 0.00 in0.0 mm
03:40 AM 29.0°F-1.7°C 23.3°F-4.8°C 79% 4.0 mph ESE6.4 kmh ESE 6.0 mph9.7 kmh 30.23 in1023.7 mb 0.00 in0.0 mm 0.00 in0.0 mm 0.00 in0.0 mm
03:45 AM 29.1°F-1.6°C 23.4°F-4.8°C 79% 3.0 mph SE4.8 kmh SE 6.0 mph9.7 kmh 30.23 in1023.7 mb 0.00 in0.0 mm 0.00 in0.0 mm 0.00 in0.0 mm
03:50 AM 29.1°F-1.6°C 23.4°F-4.8°C 79% 2.0 mph SE3.2 kmh SE 6.0 mph9.7 kmh 30.23 in1023.7 mb 0.00 in0.0 mm 0.00 in0.0 mm 0.00 in0.0 mm
03:55 AM 29.0°F-1.7°C 23.0°F-5.0°C 78% Calm Calm 6.0 mph9.7 kmh 30.24 in1024.0 mb 0.00 in0.0 mm 0.00 in0.0 mm 0.00 in0.0 mm
04:00 AM 28.9°F-1.7°C 22.9°F-5.1°C 78% 1.0 mph SE1.6 kmh SE 6.0 mph9.7 kmh 30.24 in1024.0 mb 0.00 in0.0 mm 0.00 in0.0 mm 0.00 in0.0 mm
04:05 AM 28.9°F-1.7°C 22.9°F-5.1°C 78% 2.0 mph SSE3.2 kmh SSE 6.0 mph9.7 kmh 30.24 in1024.0 mb 0.00 in0.0 mm 0.00 in0.0 mm 0.00 in0.0 mm
04:10 AM 29.1°F-1.6°C 23.1°F-4.9°C 78% 3.0 mph SE4.8 kmh SE 6.0 mph9.7 kmh 30.24 in1024.0 mb 0.00 in0.0 mm 0.00 in0.0 mm 0.00 in0.0 mm
04:15 AM 29.1°F-1.6°C 23.1°F-4.9°C 78% 3.0 mph SE4.8 kmh SE 6.0 mph9.7 kmh 30.24 in1024.0 mb 0.00 in0.0 mm 0.00 in0.0 mm 0.00 in0.0 mm
04:20 AM 29.0°F-1.7°C 23.0°F-5.0°C 78% 1.0 mph SE1.6 kmh SE 5.0 mph8.0 kmh 30.24 in1024.0 mb 0.00 in0.0 mm 0.00 in0.0 mm 0.00 in0.0 mm
04:25 AM 28.9°F-1.7°C 22.9°F-5.1°C 78% 2.0 mph SE3.2 kmh SE 5.0 mph8.0 kmh 30.24 in1024.0 mb 0.00 in0.0 mm 0.00 in0.0 mm 0.00 in0.0 mm
04:30 AM 28.6°F-1.9°C 22.3°F-5.4°C 77% 3.0 mph SSE4.8 kmh SSE 6.0 mph9.7 kmh 30.24 in1024.0 mb 0.00 in0.0 mm 0.00 in0.0 mm 0.00 in0.0 mm
04:35 AM 27.7°F-2.4°C 22.1°F-5.5°C 79% 2.0 mph SSE3.2 kmh SSE 4.0 mph6.4 kmh 30.23 in1023.7 mb 0.00 in0.0 mm 0.00 in0.0 mm 0.00 in0.0 mm
04:40 AM 27.2°F-2.7°C 21.9°F-5.6°C 80% 2.0 mph SSE3.2 kmh SSE 4.0 mph6.4 kmh 30.23 in1023.7 mb 0.00 in0.0 mm 0.00 in0.0 mm 0.00 in0.0 mm
04:45 AM 26.8°F-2.9°C 21.8°F-5.7°C 81% 3.0 mph SSW4.8 kmh SSW 4.0 mph6.4 kmh 30.23 in1023.7 mb 0.00 in0.0 mm 0.00 in0.0 mm 0.00 in0.0 mm
04:50 AM 26.3°F-3.2°C 21.6°F-5.8°C 82% 1.0 mph S1.6 kmh S 4.0 mph6.4 kmh 30.23 in1023.7 mb 0.00 in0.0 mm 0.00 in0.0 mm 0.00 in0.0 mm
04:55 AM 26.1°F-3.3°C 21.9°F-5.6°C 84% 1.0 mph S1.6 kmh S 4.0 mph6.4 kmh 30.23 in1023.7 mb 0.00 in0.0 mm 0.00 in0.0 mm 0.00 in0.0 mm
05:00 AM 25.9°F-3.4°C 21.7°F-5.7°C 84% 2.0 mph S3.2 kmh S 4.0 mph6.4 kmh 30.23 in1023.7 mb 0.00 in0.0 mm 0.00 in0.0 mm 0.00 in0.0 mm
05:05 AM 25.7°F-3.5°C 21.5°F-5.8°C 84% 2.0 mph S3.2 kmh S 4.0 mph6.4 kmh 30.23 in1023.7 mb 0.00 in0.0 mm 0.00 in0.0 mm 0.00 in0.0 mm
05:10 AM 25.7°F-3.5°C 21.8°F-5.7°C 85% 2.0 mph S3.2 kmh S 4.0 mph6.4 kmh 30.23 in1023.7 mb 0.00 in0.0 mm 0.00 in0.0 mm 0.00 in0.0 mm
05:15 AM 25.9°F-3.4°C 22.0°F-5.6°C 85% 2.0 mph S3.2 kmh S 7.0 mph11.3 kmh 30.23 in1023.7 mb 0.00 in0.0 mm 0.00 in0.0 mm 0.00 in0.0 mm
05:20 AM 26.2°F-3.2°C 22.3°F-5.4°C 85% 4.0 mph SSE6.4 kmh SSE 6.0 mph9.7 kmh 30.22 in1023.4 mb 0.00 in0.0 mm 0.00 in0.0 mm 0.00 in0.0 mm
05:25 AM 26.4°F-3.1°C 22.2°F-5.4°C 84% 5.0 mph SSE8.0 kmh SSE 6.0 mph9.7 kmh 30.22 in1023.4 mb 0.00 in0.0 mm 0.00 in0.0 mm 0.00 in0.0 mm
05:30 AM 26.5°F-3.1°C 22.1°F-5.5°C 83% 5.0 mph SSE8.0 kmh SSE 7.0 mph11.3 kmh 30.22 in1023.4 mb 0.00 in0.0 mm 0.00 in0.0 mm 0.00 in0.0 mm
05:35 AM 26.7°F-2.9°C 22.2°F-5.4°C 83% 3.0 mph SSE4.8 kmh SSE 6.0 mph9.7 kmh 30.22 in1023.4 mb 0.00 in0.0 mm 0.00 in0.0 mm 0.00 in0.0 mm
05:40 AM 26.7°F-2.9°C 22.2°F-5.4°C 83% 4.0 mph SSE6.4 kmh SSE 8.0 mph12.9 kmh 30.22 in1023.4 mb 0.00 in0.0 mm 0.00 in0.0 mm 0.00 in0.0 mm
05:45 AM 26.8°F-2.9°C 22.1°F-5.5°C 82% 4.0 mph SSE6.4 kmh SSE 8.0 mph12.9 kmh 30.22 in1023.4 mb 0.00 in0.0 mm 0.00 in0.0 mm 0.00 in0.0 mm
05:50 AM 26.8°F-2.9°C 22.1°F-5.5°C 82% 5.0 mph SSE8.0 kmh SSE 7.0 mph11.3 kmh 30.22 in1023.4 mb 0.00 in0.0 mm 0.00 in0.0 mm 0.00 in0.0 mm
05:55 AM 27.0°F-2.8°C 22.3°F-5.4°C 82% 3.0 mph SE4.8 kmh SE 9.0 mph14.5 kmh 30.22 in1023.4 mb 0.00 in0.0 mm 0.00 in0.0 mm 0.00 in0.0 mm
06:00 AM 26.9°F-2.8°C 21.9°F-5.6°C 81% 3.0 mph SE4.8 kmh SE 9.0 mph14.5 kmh 30.22 in1023.4 mb 0.00 in0.0 mm 0.00 in0.0 mm 0.00 in0.0 mm
06:05 AM 26.9°F-2.8°C 21.9°F-5.6°C 81% 4.0 mph SE6.4 kmh SE 5.0 mph8.0 kmh 30.22 in1023.4 mb 0.00 in0.0 mm 0.00 in0.0 mm 0.00 in0.0 mm
06:10 AM 27.1°F-2.7°C 22.1°F-5.5°C 81% 5.0 mph SE8.0 kmh SE 6.0 mph9.7 kmh 30.22 in1023.4 mb 0.00 in0.0 mm 0.00 in0.0 mm 0.00 in0.0 mm
06:15 AM 27.4°F-2.6°C 22.4°F-5.3°C 81% 3.0 mph SE4.8 kmh SE 6.0 mph9.7 kmh 30.22 in1023.4 mb 0.00 in0.0 mm 0.00 in0.0 mm 0.00 in0.0 mm
06:20 AM 27.5°F-2.5°C 22.5°F-5.3°C 81% 5.0 mph SE8.0 kmh SE 5.0 mph8.0 kmh 30.22 in1023.4 mb 0.00 in0.0 mm 0.00 in0.0 mm 0.00 in0.0 mm
06:25 AM 27.7°F-2.4°C 22.4°F-5.3°C 80% 2.0 mph SE3.2 kmh SE 6.0 mph9.7 kmh 30.22 in1023.4 mb 0.00 in0.0 mm 0.00 in0.0 mm 0.00 in0.0 mm
06:30 AM 27.7°F-2.4°C 22.4°F-5.3°C 80% 3.0 mph SE4.8 kmh SE 6.0 mph9.7 kmh 30.22 in1023.4 mb 0.00 in0.0 mm 0.00 in0.0 mm 0.00 in0.0 mm
06:35 AM 27.6°F-2.4°C 22.3°F-5.4°C 80% 3.0 mph SE4.8 kmh SE 5.0 mph8.0 kmh 30.22 in1023.4 mb 0.00 in0.0 mm 0.00 in0.0 mm 0.00 in0.0 mm
06:40 AM 27.5°F-2.5°C 22.2°F-5.4°C 80% 2.0 mph SE3.2 kmh SE 5.0 mph8.0 kmh 30.22 in1023.4 mb 0.00 in0.0 mm 0.00 in0.0 mm 0.00 in0.0 mm
06:45 AM 27.5°F-2.5°C 22.2°F-5.4°C 80% 4.0 mph SE6.4 kmh SE 5.0 mph8.0 kmh 30.22 in1023.4 mb 0.00 in0.0 mm 0.00 in0.0 mm 0.00 in0.0 mm
06:50 AM 27.3°F-2.6°C 22.0°F-5.6°C 80% 3.0 mph SE4.8 kmh SE 5.0 mph8.0 kmh 30.22 in1023.4 mb 0.00 in0.0 mm 0.00 in0.0 mm 0.00 in0.0 mm
06:55 AM 27.1°F-2.7°C 21.8°F-5.7°C 80% 2.0 mph SE3.2 kmh SE 5.0 mph8.0 kmh 30.22 in1023.4 mb 0.00 in0.0 mm 0.00 in0.0 mm 0.00 in0.0 mm
07:00 AM 26.9°F-2.8°C 21.6°F-5.8°C 80% 3.0 mph SE4.8 kmh SE 5.0 mph8.0 kmh 30.22 in1023.4 mb 0.00 in0.0 mm 0.00 in0.0 mm 0.00 in0.0 mm
07:05 AM 26.6°F-3.0°C 21.6°F-5.8°C 81% 3.0 mph SE4.8 kmh SE 5.0 mph8.0 kmh 30.22 in1023.4 mb 0.00 in0.0 mm 0.00 in0.0 mm 0.00 in0.0 mm
07:10 AM 26.4°F-3.1°C 21.4°F-5.9°C 81% 4.0 mph SE6.4 kmh SE 5.0 mph8.0 kmh 30.21 in1023.0 mb 0.00 in0.0 mm 0.00 in0.0 mm 0.00 in0.0 mm
07:15 AM 26.3°F-3.2°C 21.3°F-5.9°C 81% 4.0 mph SE6.4 kmh SE 6.0 mph9.7 kmh 30.22 in1023.4 mb 0.00 in0.0 mm 0.00 in0.0 mm 0.00 in0.0 mm
07:20 AM 26.1°F-3.3°C 21.4°F-5.9°C 82% 3.0 mph SE4.8 kmh SE 5.0 mph8.0 kmh 30.22 in1023.4 mb 0.00 in0.0 mm 0.00 in0.0 mm 0.00 in0.0 mm
07:25 AM 26.1°F-3.3°C 21.4°F-5.9°C 82% 2.0 mph ESE3.2 kmh ESE 6.0 mph9.7 kmh 30.22 in1023.4 mb 0.00 in0.0 mm 0.00 in0.0 mm 0.00 in0.0 mm
07:30 AM 26.0°F-3.3°C 21.3°F-5.9°C 82% 3.0 mph SE4.8 kmh SE 7.0 mph11.3 kmh 30.22 in1023.4 mb 0.00 in0.0 mm 0.00 in0.0 mm 0.00 in0.0 mm
07:35 AM 25.8°F-3.4°C 21.1°F-6.1°C 82% 2.0 mph SE3.2 kmh SE 5.0 mph8.0 kmh 30.23 in1023.7 mb 0.00 in0.0 mm 0.00 in0.0 mm 0.00 in0.0 mm
07:40 AM 25.7°F-3.5°C 21.0°F-6.1°C 82% 3.0 mph SSE4.8 kmh SSE 6.0 mph9.7 kmh 30.23 in1023.7 mb 0.00 in0.0 mm 0.00 in0.0 mm 0.00 in0.0 mm
07:45 AM 25.8°F-3.4°C 21.4°F-5.9°C 83% 3.0 mph SE4.8 kmh SE 6.0 mph9.7 kmh 30.23 in1023.7 mb 0.00 in0.0 mm 0.00 in0.0 mm 0.00 in0.0 mm
07:50 AM 25.9°F-3.4°C 21.5°F-5.8°C 83% 4.0 mph SSE6.4 kmh SSE 6.0 mph9.7 kmh 30.23 in1023.7 mb 0.00 in0.0 mm 0.00 in0.0 mm 0.00 in0.0 mm
07:55 AM 26.1°F-3.3°C 21.4°F-5.9°C 82% 2.0 mph SE3.2 kmh SE 7.0 mph11.3 kmh 30.23 in1023.7 mb 0.00 in0.0 mm 0.00 in0.0 mm 0.00 in0.0 mm
08:00 AM 26.1°F-3.3°C 21.4°F-5.9°C 82% 2.0 mph SE3.2 kmh SE 7.0 mph11.3 kmh 30.23 in1023.7 mb 0.00 in0.0 mm 0.00 in0.0 mm 0.00 in0.0 mm
08:05 AM 26.1°F-3.3°C 21.4°F-5.9°C 82% 4.0 mph SSE6.4 kmh SSE 6.0 mph9.7 kmh 30.23 in1023.7 mb 0.00 in0.0 mm 0.00 in0.0 mm 0.00 in0.0 mm
08:10 AM 26.1°F-3.3°C 21.4°F-5.9°C 82% 1.0 mph SE1.6 kmh SE 6.0 mph9.7 kmh 30.23 in1023.7 mb 0.00 in0.0 mm 0.00 in0.0 mm 0.00 in0.0 mm
08:15 AM 26.2°F-3.2°C 21.2°F-6.0°C 81% 2.0 mph ESE3.2 kmh ESE 6.0 mph9.7 kmh 30.24 in1024.0 mb 0.00 in0.0 mm 0.00 in0.0 mm 0.00 in0.0 mm
08:20 AM 26.1°F-3.3°C 21.1°F-6.1°C 81% 3.0 mph ESE4.8 kmh ESE 4.0 mph6.4 kmh 30.24 in1024.0 mb 0.00 in0.0 mm 0.00 in0.0 mm 0.00 in0.0 mm
08:25 AM 26.2°F-3.2°C 21.5°F-5.8°C 82% 1.0 mph SE1.6 kmh SE 6.0 mph9.7 kmh 30.24 in1024.0 mb 0.00 in0.0 mm 0.00 in0.0 mm 0.00 in0.0 mm
08:30 AM 26.2°F-3.2°C 21.2°F-6.0°C 81% 3.0 mph SE4.8 kmh SE 6.0 mph9.7 kmh 30.24 in1024.0 mb 0.00 in0.0 mm 0.00 in0.0 mm 0.00 in0.0 mm
08:35 AM 26.0°F-3.3°C 21.0°F-6.1°C 81% 3.0 mph SE4.8 kmh SE 5.0 mph8.0 kmh 30.24 in1024.0 mb 0.00 in0.0 mm 0.00 in0.0 mm 0.00 in0.0 mm
08:40 AM 26.0°F-3.3°C 21.0°F-6.1°C 81% 3.0 mph ESE4.8 kmh ESE 5.0 mph8.0 kmh 30.24 in1024.0 mb 0.00 in0.0 mm 0.00 in0.0 mm 0.00 in0.0 mm
08:45 AM 25.8°F-3.4°C 20.8°F-6.2°C 81% 3.0 mph ESE4.8 kmh ESE 6.0 mph9.7 kmh 30.24 in1024.0 mb 0.00 in0.0 mm 0.00 in0.0 mm 0.00 in0.0 mm
08:50 AM 25.8°F-3.4°C 20.8°F-6.2°C 81% 3.0 mph SE4.8 kmh SE 5.0 mph8.0 kmh 30.24 in1024.0 mb 0.00 in0.0 mm 0.00 in0.0 mm 0.00 in0.0 mm
08:55 AM 25.9°F-3.4°C 20.9°F-6.2°C 81% 3.0 mph SE4.8 kmh SE 5.0 mph8.0 kmh 30.24 in1024.0 mb 0.00 in0.0 mm 0.00 in0.0 mm 0.00 in0.0 mm
09:00 AM 26.0°F-3.3°C 20.7°F-6.3°C 80% 3.0 mph ESE4.8 kmh ESE 7.0 mph11.3 kmh 30.24 in1024.0 mb 0.00 in0.0 mm 0.00 in0.0 mm 0.00 in0.0 mm
09:05 AM 26.0°F-3.3°C 20.7°F-6.3°C 80% 4.0 mph SE6.4 kmh SE 5.0 mph8.0 kmh 30.24 in1024.0 mb 0.00 in0.0 mm 0.00 in0.0 mm 0.00 in0.0 mm
09:10 AM 25.9°F-3.4°C 20.6°F-6.3°C 80% 1.0 mph SE1.6 kmh SE 5.0 mph8.0 kmh 30.24 in1024.0 mb 0.00 in0.0 mm 0.00 in0.0 mm 0.00 in0.0 mm
09:15 AM 25.9°F-3.4°C 20.6°F-6.3°C 80% 3.0 mph ESE4.8 kmh ESE 6.0 mph9.7 kmh 30.24 in1024.0 mb 0.00 in0.0 mm 0.00 in0.0 mm 0.00 in0.0 mm
09:20 AM 25.8°F-3.4°C 20.5°F-6.4°C 80% 2.0 mph SE3.2 kmh SE 5.0 mph8.0 kmh 30.25 in1024.4 mb 0.00 in0.0 mm 0.00 in0.0 mm 0.00 in0.0 mm
09:25 AM 25.8°F-3.4°C 20.5°F-6.4°C 80% 4.0 mph ESE6.4 kmh ESE 5.0 mph8.0 kmh 30.25 in1024.4 mb 0.00 in0.0 mm 0.00 in0.0 mm 0.00 in0.0 mm
09:30 AM 25.9°F-3.4°C 20.6°F-6.3°C 80% 2.0 mph ESE3.2 kmh ESE 5.0 mph8.0 kmh 30.25 in1024.4 mb 0.00 in0.0 mm 0.00 in0.0 mm 0.00 in0.0 mm
09:35 AM 26.1°F-3.3°C 20.8°F-6.2°C 80% 2.0 mph SE3.2 kmh SE 5.0 mph8.0 kmh 30.25 in1024.4 mb 0.00 in0.0 mm 0.00 in0.0 mm 0.00 in0.0 mm
09:40 AM 26.3°F-3.2°C 21.0°F-6.1°C 80% 2.0 mph ESE3.2 kmh ESE 5.0 mph8.0 kmh 30.25 in1024.4 mb 0.00 in0.0 mm 0.00 in0.0 mm 0.00 in0.0 mm
09:45 AM 26.5°F-3.1°C 20.9°F-6.2°C 79% 4.0 mph SE6.4 kmh SE 5.0 mph8.0 kmh 30.25 in1024.4 mb 0.00 in0.0 mm 0.00 in0.0 mm 0.00 in0.0 mm
09:50 AM 26.7°F-2.9°C 21.1°F-6.1°C 79% 3.0 mph SE4.8 kmh SE 7.0 mph11.3 kmh 30.25 in1024.4 mb 0.00 in0.0 mm 0.00 in0.0 mm 0.00 in0.0 mm
09:55 AM 26.8°F-2.9°C 21.2°F-6.0°C 79% 2.0 mph SE3.2 kmh SE 7.0 mph11.3 kmh 30.25 in1024.4 mb 0.00 in0.0 mm 0.00 in0.0 mm 0.00 in0.0 mm
10:00 AM 27.0°F-2.8°C 21.4°F-5.9°C 79% 4.0 mph SE6.4 kmh SE 7.0 mph11.3 kmh 30.25 in1024.4 mb 0.00 in0.0 mm 0.00 in0.0 mm 0.00 in0.0 mm
10:05 AM 27.2°F-2.7°C 21.3°F-5.9°C 78% 3.0 mph SE4.8 kmh SE 8.0 mph12.9 kmh 30.25 in1024.4 mb 0.00 in0.0 mm 0.00 in0.0 mm 0.00 in0.0 mm
10:10 AM 27.5°F-2.5°C 21.6°F-5.8°C 78% 6.0 mph SSE9.7 kmh SSE 8.0 mph12.9 kmh 30.25 in1024.4 mb 0.00 in0.0 mm 0.00 in0.0 mm 0.00 in0.0 mm
10:15 AM 28.0°F-2.2°C 22.0°F-5.6°C 78% 2.0 mph SE3.2 kmh SE 8.0 mph12.9 kmh 30.25 in1024.4 mb 0.00 in0.0 mm 0.00 in0.0 mm 0.00 in0.0 mm
10:20 AM 28.5°F-1.9°C 22.2°F-5.4°C 77% 3.0 mph SE4.8 kmh SE 6.0 mph9.7 kmh 30.25 in1024.4 mb 0.00 in0.0 mm 0.00 in0.0 mm 0.00 in0.0 mm
10:25 AM 29.0°F-1.7°C 22.7°F-5.2°C 77% 5.0 mph SSE8.0 kmh SSE 7.0 mph11.3 kmh 30.25 in1024.4 mb 0.00 in0.0 mm 0.00 in0.0 mm 0.00 in0.0 mm
10:30 AM 29.4°F-1.4°C 22.8°F-5.1°C 76% 3.0 mph SE4.8 kmh SE 7.0 mph11.3 kmh 30.26 in1024.7 mb 0.00 in0.0 mm 0.00 in0.0 mm 0.00 in0.0 mm
10:35 AM 29.8°F-1.2°C 22.9°F-5.1°C 75% 5.0 mph SSE8.0 kmh SSE 9.0 mph14.5 kmh 30.26 in1024.7 mb 0.00 in0.0 mm 0.00 in0.0 mm 0.00 in0.0 mm
10:40 AM 30.1°F-1.1°C 23.2°F-4.9°C 75% 6.0 mph SE9.7 kmh SE 9.0 mph14.5 kmh 30.25 in1024.4 mb 0.00 in0.0 mm 0.00 in0.0 mm 0.00 in0.0 mm
10:45 AM 30.4°F-0.9°C 23.1°F-4.9°C 74% 6.0 mph SE9.7 kmh SE 9.0 mph14.5 kmh 30.25 in1024.4 mb 0.00 in0.0 mm 0.00 in0.0 mm 0.00 in0.0 mm
10:50 AM 30.8°F-0.7°C 23.2°F-4.9°C 73% 5.0 mph SE8.0 kmh SE 10.0 mph16.1 kmh 30.25 in1024.4 mb 0.00 in0.0 mm 0.00 in0.0 mm 0.00 in0.0 mm
10:55 AM 31.2°F-0.4°C 23.2°F-4.9°C 72% 5.0 mph S8.0 kmh S 10.0 mph16.1 kmh 30.25 in1024.4 mb 0.00 in0.0 mm 0.00 in0.0 mm 0.00 in0.0 mm
11:00 AM 31.7°F-0.2°C 23.7°F-4.6°C 72% 4.0 mph SE6.4 kmh SE 10.0 mph16.1 kmh 30.25 in1024.4 mb 0.00 in0.0 mm 0.00 in0.0 mm 0.00 in0.0 mm
11:05 AM 32.0°F0.0°C 23.7°F-4.6°C 71% 10.0 mph S16.1 kmh S 10.0 mph16.1 kmh 30.25 in1024.4 mb 0.00 in0.0 mm 0.00 in0.0 mm 0.00 in0.0 mm
11:10 AM 32.3°F0.2°C 24.0°F-4.4°C 71% 4.0 mph S6.4 kmh S 10.0 mph16.1 kmh 30.25 in1024.4 mb 0.00 in0.0 mm 0.00 in0.0 mm 0.00 in0.0 mm
11:15 AM 32.7°F0.4°C 23.7°F-4.6°C 69% 6.0 mph SE9.7 kmh SE 10.0 mph16.1 kmh 30.25 in1024.4 mb 0.00 in0.0 mm 0.00 in0.0 mm 0.00 in0.0 mm
11:20 AM 33.1°F0.6°C 24.4°F-4.2°C 70% 6.0 mph SSE9.7 kmh SSE 10.0 mph16.1 kmh 30.25 in1024.4 mb 0.00 in0.0 mm 0.00 in0.0 mm 0.00 in0.0 mm
11:25 AM 33.6°F0.9°C 24.9°F-3.9°C 70% 3.0 mph ESE4.8 kmh ESE 10.0 mph16.1 kmh 30.25 in1024.4 mb 0.00 in0.0 mm 0.00 in0.0 mm 0.00 in0.0 mm
11:30 AM 33.9°F1.1°C 24.1°F-4.4°C 67% 8.0 mph SSE12.9 kmh SSE 10.0 mph16.1 kmh 30.25 in1024.4 mb 0.00 in0.0 mm 0.00 in0.0 mm 0.00 in0.0 mm
11:35 AM 33.9°F1.1°C 24.5°F-4.2°C 68% 5.0 mph SE8.0 kmh SE 10.0 mph16.1 kmh 30.26 in1024.7 mb 0.00 in0.0 mm 0.00 in0.0 mm 0.00 in0.0 mm
11:40 AM 34.0°F1.1°C 24.6°F-4.1°C 68% 4.0 mph SE6.4 kmh SE 10.0 mph16.1 kmh 30.26 in1024.7 mb 0.00 in0.0 mm 0.00 in0.0 mm 0.00 in0.0 mm
11:45 AM 34.0°F1.1°C 24.2°F-4.3°C 67% 5.0 mph SE8.0 kmh SE 10.0 mph16.1 kmh 30.26 in1024.7 mb 0.00 in0.0 mm 0.00 in0.0 mm 0.00 in0.0 mm
11:50 AM 33.9°F1.1°C 24.5°F-4.2°C 68% 2.0 mph SE3.2 kmh SE 6.0 mph9.7 kmh 30.26 in1024.7 mb 0.00 in0.0 mm 0.00 in0.0 mm 0.00 in0.0 mm
11:55 AM 34.1°F1.2°C 25.0°F-3.9°C 69% 3.0 mph E4.8 kmh E 7.0 mph11.3 kmh 30.26 in1024.7 mb 0.00 in0.0 mm 0.00 in0.0 mm 0.00 in0.0 mm
12:00 PM 34.3°F1.3°C 24.9°F-3.9°C 68% 4.0 mph E6.4 kmh E 7.0 mph11.3 kmh 30.27 in1025.1 mb 0.00 in0.0 mm 0.00 in0.0 mm 0.00 in0.0 mm
12:05 PM 34.1°F1.2°C 24.7°F-4.1°C 68% 3.0 mph ESE4.8 kmh ESE 7.0 mph11.3 kmh 30.27 in1025.1 mb 0.00 in0.0 mm 0.00 in0.0 mm 0.00 in0.0 mm
12:10 PM 34.8°F1.6°C 25.3°F-3.7°C 68% 5.0 mph ENE8.0 kmh ENE 7.0 mph11.3 kmh 30.27 in1025.1 mb 0.00 in0.0 mm 0.00 in0.0 mm 0.00 in0.0 mm
12:15 PM 35.1°F1.7°C 24.9°F-3.9°C 66% 3.0 mph E4.8 kmh E 7.0 mph11.3 kmh 30.27 in1025.1 mb 0.00 in0.0 mm 0.00 in0.0 mm 0.00 in0.0 mm
12:20 PM 35.6°F2.0°C 26.1°F-3.3°C 68% 6.0 mph E9.7 kmh E 7.0 mph11.3 kmh 30.27 in1025.1 mb 0.00 in0.0 mm 0.00 in0.0 mm 0.00 in0.0 mm
12:25 PM 36.0°F2.2°C 25.8°F-3.4°C 66% 3.0 mph E4.8 kmh E 8.0 mph12.9 kmh 30.26 in1024.7 mb 0.00 in0.0 mm 0.00 in0.0 mm 0.00 in0.0 mm
12:30 PM 36.4°F2.4°C 25.8°F-3.4°C 65% 3.0 mph E4.8 kmh E 8.0 mph12.9 kmh 30.26 in1024.7 mb 0.00 in0.0 mm 0.00 in0.0 mm 0.00 in0.0 mm
12:35 PM 36.6°F2.6°C 25.2°F-3.8°C 63% 1.0 mph ESE1.6 kmh ESE 6.0 mph9.7 kmh 30.27 in1025.1 mb 0.00 in0.0 mm 0.00 in0.0 mm 0.00 in0.0 mm
12:40 PM 36.9°F2.7°C 25.9°F-3.4°C 64% 3.0 mph E4.8 kmh E 6.0 mph9.7 kmh 30.26 in1024.7 mb 0.00 in0.0 mm 0.00 in0.0 mm 0.00 in0.0 mm
12:45 PM 36.9°F2.7°C 25.5°F-3.6°C 63% 5.0 mph SSE8.0 kmh SSE 6.0 mph9.7 kmh 30.26 in1024.7 mb 0.00 in0.0 mm 0.00 in0.0 mm 0.00 in0.0 mm
12:50 PM 36.9°F2.7°C 25.5°F-3.6°C 63% 3.0 mph ESE4.8 kmh ESE 5.0 mph8.0 kmh 30.25 in1024.4 mb 0.00 in0.0 mm 0.00 in0.0 mm 0.00 in0.0 mm
12:55 PM 37.5°F3.1°C 24.9°F-3.9°C 60% 1.0 mph NE1.6 kmh NE 5.0 mph8.0 kmh 30.25 in1024.4 mb 0.00 in0.0 mm 0.00 in0.0 mm 0.00 in0.0 mm
01:00 PM 37.9°F3.3°C 24.9°F-3.9°C 59% 1.0 mph NE1.6 kmh NE 5.0 mph8.0 kmh 30.25 in1024.4 mb 0.00 in0.0 mm 0.00 in0.0 mm 0.00 in0.0 mm
01:05 PM 37.3°F2.9°C 24.3°F-4.3°C 59% Calm Calm -- 30.25 in1024.4 mb 0.00 in0.0 mm 0.00 in0.0 mm 0.00 in0.0 mm
01:10 PM 37.2°F2.9°C 24.6°F-4.1°C 60% 1.0 mph NE1.6 kmh NE 2.0 mph3.2 kmh 30.24 in1024.0 mb 0.00 in0.0 mm 0.00 in0.0 mm 0.00 in0.0 mm
01:15 PM 37.9°F3.3°C 25.3°F-3.7°C 60% 1.0 mph NE1.6 kmh NE 2.0 mph3.2 kmh 30.24 in1024.0 mb 0.00 in0.0 mm 0.00 in0.0 mm 0.00 in0.0 mm
01:20 PM 38.3°F3.5°C 25.2°F-3.8°C 59% Calm Calm 3.0 mph4.8 kmh 30.24 in1024.0 mb 0.00 in0.0 mm 0.00 in0.0 mm 0.00 in0.0 mm
01:25 PM 38.2°F3.4°C 25.6°F-3.6°C 60% Calm Calm 5.0 mph8.0 kmh 30.24 in1024.0 mb 0.00 in0.0 mm 0.00 in0.0 mm 0.00 in0.0 mm
01:30 PM 38.1°F3.4°C 25.5°F-3.6°C 60% Calm Calm 5.0 mph8.0 kmh 30.23 in1023.7 mb 0.00 in0.0 mm 0.00 in0.0 mm 0.00 in0.0 mm
01:35 PM 38.6°F3.7°C 25.9°F-3.4°C 60% 3.0 mph ENE4.8 kmh ENE 3.0 mph4.8 kmh 30.23 in1023.7 mb 0.00 in0.0 mm 0.00 in0.0 mm 0.00 in0.0 mm
01:40 PM 38.9°F3.8°C 26.2°F-3.2°C 60% 1.0 mph NE1.6 kmh NE 3.0 mph4.8 kmh 30.23 in1023.7 mb 0.00 in0.0 mm 0.00 in0.0 mm 0.00 in0.0 mm
01:45 PM 39.8°F4.3°C 26.2°F-3.2°C 58% Calm Calm 4.0 mph6.4 kmh 30.23 in1023.7 mb 0.00 in0.0 mm 0.00 in0.0 mm 0.00 in0.0 mm
01:50 PM 39.9°F4.4°C 26.8°F-2.9°C 59% 2.0 mph NNE3.2 kmh NNE 3.0 mph4.8 kmh 30.23 in1023.7 mb 0.00 in0.0 mm 0.00 in0.0 mm 0.00 in0.0 mm
01:55 PM 40.0°F4.4°C 26.4°F-3.1°C 58% Calm Calm 4.0 mph6.4 kmh 30.23 in1023.7 mb 0.00 in0.0 mm 0.00 in0.0 mm 0.00 in0.0 mm
02:00 PM 40.1°F4.5°C 26.1°F-3.3°C 57% 2.0 mph NE3.2 kmh NE 4.0 mph6.4 kmh 30.22 in1023.4 mb 0.00 in0.0 mm 0.00 in0.0 mm 0.00 in0.0 mm
02:05 PM 40.1°F4.5°C 26.5°F-3.1°C 58% 1.0 mph NE1.6 kmh NE 2.0 mph3.2 kmh 30.22 in1023.4 mb 0.00 in0.0 mm 0.00 in0.0 mm 0.00 in0.0 mm
02:10 PM 40.6°F4.8°C 27.0°F-2.8°C 58% 3.0 mph NE4.8 kmh NE 5.0 mph8.0 kmh 30.22 in1023.4 mb 0.00 in0.0 mm 0.00 in0.0 mm 0.00 in0.0 mm
02:15 PM 40.6°F4.8°C 26.6°F-3.0°C 57% Calm Calm 5.0 mph8.0 kmh 30.22 in1023.4 mb 0.00 in0.0 mm 0.00 in0.0 mm 0.00 in0.0 mm
02:20 PM 40.1°F4.5°C 26.1°F-3.3°C 57% Calm Calm 2.0 mph3.2 kmh 30.21 in1023.0 mb 0.00 in0.0 mm 0.00 in0.0 mm 0.00 in0.0 mm
02:25 PM 40.4°F4.7°C 25.5°F-3.6°C 55% Calm Calm 5.0 mph8.0 kmh 30.21 in1023.0 mb 0.00 in0.0 mm 0.00 in0.0 mm 0.00 in0.0 mm
02:30 PM 41.3°F5.2°C 27.2°F-2.7°C 57% 3.0 mph NNE4.8 kmh NNE 6.0 mph9.7 kmh 30.21 in1023.0 mb 0.00 in0.0 mm 0.00 in0.0 mm 0.00 in0.0 mm
02:35 PM 41.0°F5.0°C 25.6°F-3.6°C 54% Calm Calm 4.0 mph6.4 kmh 30.21 in1023.0 mb 0.00 in0.0 mm 0.00 in0.0 mm 0.00 in0.0 mm
02:40 PM 40.4°F4.7°C 25.5°F-3.6°C 55% 1.0 mph NW1.6 kmh NW 5.0 mph8.0 kmh 30.20 in1022.7 mb 0.00 in0.0 mm 0.00 in0.0 mm 0.00 in0.0 mm
02:45 PM 41.5°F5.3°C 26.1°F-3.3°C 54% Calm Calm 5.0 mph8.0 kmh 30.20 in1022.7 mb 0.00 in0.0 mm 0.00 in0.0 mm 0.00 in0.0 mm
02:50 PM 41.1°F5.1°C 26.2°F-3.2°C 55% Calm Calm 4.0 mph6.4 kmh 30.20 in1022.7 mb 0.00 in0.0 mm 0.00 in0.0 mm 0.00 in0.0 mm
02:55 PM 42.2°F5.7°C 25.9°F-3.4°C 52% Calm Calm 4.0 mph6.4 kmh 30.19 in1022.4 mb 0.00 in0.0 mm 0.00 in0.0 mm 0.00 in0.0 mm
03:00 PM 41.8°F5.4°C 25.9°F-3.4°C 53% 3.0 mph N4.8 kmh N 4.0 mph6.4 kmh 30.19 in1022.4 mb 0.00 in0.0 mm 0.00 in0.0 mm 0.00 in0.0 mm
03:05 PM 41.7°F5.4°C 26.3°F-3.2°C 54% 1.0 mph NNE1.6 kmh NNE 3.0 mph4.8 kmh 30.19 in1022.4 mb 0.00 in0.0 mm 0.00 in0.0 mm 0.00 in0.0 mm
03:10 PM 42.1°F5.6°C 26.7°F-2.9°C 54% 1.0 mph NW1.6 kmh NW 5.0 mph8.0 kmh 30.19 in1022.4 mb 0.00 in0.0 mm 0.00 in0.0 mm 0.00 in0.0 mm
03:15 PM 42.2°F5.7°C 26.8°F-2.9°C 54% Calm Calm 5.0 mph8.0 kmh 30.19 in1022.4 mb 0.00 in0.0 mm 0.00 in0.0 mm 0.00 in0.0 mm
03:20 PM 41.3°F5.2°C 25.9°F-3.4°C 54% Calm Calm 3.0 mph4.8 kmh 30.19 in1022.4 mb 0.00 in0.0 mm 0.00 in0.0 mm 0.00 in0.0 mm
03:25 PM 41.7°F5.4°C 26.7°F-2.9°C 55% 5.0 mph N8.0 kmh N 6.0 mph9.7 kmh 30.18 in1022.0 mb 0.00 in0.0 mm 0.00 in0.0 mm 0.00 in0.0 mm
03:30 PM 41.8°F5.4°C 25.9°F-3.4°C 53% Calm Calm 6.0 mph9.7 kmh 30.18 in1022.0 mb 0.00 in0.0 mm 0.00 in0.0 mm 0.00 in0.0 mm
03:35 PM 42.1°F5.6°C 26.7°F-2.9°C 54% 5.0 mph N8.0 kmh N 5.0 mph8.0 kmh 30.18 in1022.0 mb 0.00 in0.0 mm 0.00 in0.0 mm 0.00 in0.0 mm
03:40 PM 42.0°F5.6°C 25.2°F-3.8°C 51% 2.0 mph N3.2 kmh N 5.0 mph8.0 kmh 30.18 in1022.0 mb 0.00 in0.0 mm 0.00 in0.0 mm 0.00 in0.0 mm
03:45 PM 42.3°F5.7°C 26.9°F-2.8°C 54% 4.0 mph NNW6.4 kmh NNW 5.0 mph8.0 kmh 30.18 in1022.0 mb 0.00 in0.0 mm 0.00 in0.0 mm 0.00 in0.0 mm
03:50 PM 42.5°F5.8°C 27.0°F-2.8°C 54% 1.0 mph N1.6 kmh N 5.0 mph8.0 kmh 30.17 in1021.7 mb 0.00 in0.0 mm 0.00 in0.0 mm 0.00 in0.0 mm
03:55 PM 42.9°F6.1°C 26.5°F-3.1°C 52% 2.0 mph N3.2 kmh N 5.0 mph8.0 kmh 30.17 in1021.7 mb 0.00 in0.0 mm 0.00 in0.0 mm 0.00 in0.0 mm
04:00 PM 43.0°F6.1°C 26.6°F-3.0°C 52% Calm Calm 5.0 mph8.0 kmh 30.17 in1021.7 mb 0.00 in0.0 mm 0.00 in0.0 mm 0.00 in0.0 mm
04:05 PM 42.4°F5.8°C 25.6°F-3.6°C 51% Calm Calm 4.0 mph6.4 kmh 30.17 in1021.7 mb 0.00 in0.0 mm 0.00 in0.0 mm 0.00 in0.0 mm
04:10 PM 42.5°F5.8°C 25.7°F-3.5°C 51% Calm Calm 4.0 mph6.4 kmh 30.17 in1021.7 mb 0.00 in0.0 mm 0.00 in0.0 mm 0.00 in0.0 mm
04:15 PM 41.9°F5.5°C 25.1°F-3.8°C 51% Calm Calm 4.0 mph6.4 kmh 30.17 in1021.7 mb 0.00 in0.0 mm 0.00 in0.0 mm 0.00 in0.0 mm
04:20 PM 42.0°F5.6°C 25.7°F-3.5°C 52% 2.0 mph NE3.2 kmh NE 2.0 mph3.2 kmh 30.17 in1021.7 mb 0.00 in0.0 mm 0.00 in0.0 mm 0.00 in0.0 mm
04:25 PM 42.1°F5.6°C 25.8°F-3.4°C 52% Calm Calm 2.0 mph3.2 kmh 30.17 in1021.7 mb 0.00 in0.0 mm 0.00 in0.0 mm 0.00 in0.0 mm
04:30 PM 41.8°F5.4°C 25.0°F-3.9°C 51% Calm Calm 2.0 mph3.2 kmh 30.16 in1021.3 mb 0.00 in0.0 mm 0.00 in0.0 mm 0.00 in0.0 mm
04:35 PM 42.5°F5.8°C 25.7°F-3.5°C 51% 2.0 mph N3.2 kmh N 5.0 mph8.0 kmh 30.16 in1021.3 mb 0.00 in0.0 mm 0.00 in0.0 mm 0.00 in0.0 mm
04:40 PM 42.7°F5.9°C 25.4°F-3.7°C 50% Calm Calm 5.0 mph8.0 kmh 30.16 in1021.3 mb 0.00 in0.0 mm 0.00 in0.0 mm 0.00 in0.0 mm
04:45 PM 42.5°F5.8°C 24.7°F-4.1°C 49% Calm Calm 5.0 mph8.0 kmh 30.16 in1021.3 mb 0.00 in0.0 mm 0.00 in0.0 mm 0.00 in0.0 mm
04:50 PM 42.0°F5.6°C 24.7°F-4.1°C 50% Calm Calm -- 30.16 in1021.3 mb 0.00 in0.0 mm 0.00 in0.0 mm 0.00 in0.0 mm
04:55 PM 42.0°F5.6°C 25.2°F-3.8°C 51% 2.0 mph WSW3.2 kmh WSW 4.0 mph6.4 kmh 30.16 in1021.3 mb 0.00 in0.0 mm 0.00 in0.0 mm 0.00 in0.0 mm
05:00 PM 41.9°F5.5°C 25.1°F-3.8°C 51% Calm Calm 4.0 mph6.4 kmh 30.16 in1021.3 mb 0.00 in0.0 mm 0.00 in0.0 mm 0.00 in0.0 mm
05:05 PM 41.9°F5.5°C 25.1°F-3.8°C 51% Calm Calm -- 30.16 in1021.3 mb 0.00 in0.0 mm 0.00 in0.0 mm 0.00 in0.0 mm
05:10 PM 42.0°F5.6°C 25.7°F-3.5°C 52% 3.0 mph NW4.8 kmh NW 4.0 mph6.4 kmh 30.16 in1021.3 mb 0.00 in0.0 mm 0.00 in0.0 mm 0.00 in0.0 mm
05:15 PM 42.3°F5.7°C 25.5°F-3.6°C 51% Calm Calm 4.0 mph6.4 kmh 30.16 in1021.3 mb 0.00 in0.0 mm 0.00 in0.0 mm 0.00 in0.0 mm
05:20 PM 42.3°F5.7°C 25.5°F-3.6°C 51% Calm Calm -- 30.15 in1021.0 mb 0.00 in0.0 mm 0.00 in0.0 mm 0.00 in0.0 mm
05:25 PM 41.9°F5.5°C 25.1°F-3.8°C 51% Calm Calm -- 30.15 in1021.0 mb 0.00 in0.0 mm 0.00 in0.0 mm 0.00 in0.0 mm
05:30 PM 42.4°F5.8°C 25.6°F-3.6°C 51% Calm Calm 3.0 mph4.8 kmh 30.15 in1021.0 mb 0.00 in0.0 mm 0.00 in0.0 mm 0.00 in0.0 mm
05:35 PM 42.2°F5.7°C 25.4°F-3.7°C 51% Calm Calm -- 30.15 in1021.0 mb 0.00 in0.0 mm 0.00 in0.0 mm 0.00 in0.0 mm
05:40 PM 42.0°F5.6°C 24.7°F-4.1°C 50% Calm Calm -- 30.15 in1021.0 mb 0.00 in0.0 mm 0.00 in0.0 mm 0.00 in0.0 mm
05:45 PM 41.8°F5.4°C 24.5°F-4.2°C 50% Calm Calm -- 30.15 in1021.0 mb 0.00 in0.0 mm 0.00 in0.0 mm 0.00 in0.0 mm
05:50 PM 41.9°F5.5°C 24.2°F-4.3°C 49% Calm Calm -- 30.15 in1021.0 mb 0.00 in0.0 mm 0.00 in0.0 mm 0.00 in0.0 mm
05:55 PM 41.8°F5.4°C 24.1°F-4.4°C 49% Calm Calm -- 30.15 in1021.0 mb 0.00 in0.0 mm 0.00 in0.0 mm 0.00 in0.0 mm
06:00 PM 41.8°F5.4°C 24.5°F-4.2°C 50% Calm Calm -- 30.15 in1021.0 mb 0.00 in0.0 mm 0.00 in0.0 mm 0.00 in0.0 mm
06:05 PM 41.7°F5.4°C 25.4°F-3.7°C 52% Calm Calm -- 30.15 in1021.0 mb 0.00 in0.0 mm 0.00 in0.0 mm 0.00 in0.0 mm
06:10 PM 41.5°F5.3°C 25.2°F-3.8°C 52% Calm Calm 3.0 mph4.8 kmh 30.15 in1021.0 mb 0.00 in0.0 mm 0.00 in0.0 mm 0.00 in0.0 mm
06:15 PM 41.2°F5.1°C 25.4°F-3.7°C 53% Calm Calm 3.0 mph4.8 kmh 30.14 in1020.7 mb 0.00 in0.0 mm 0.00 in0.0 mm 0.00 in0.0 mm
06:20 PM 40.8°F4.9°C 25.0°F-3.9°C 53% Calm Calm 2.0 mph3.2 kmh 30.14 in1020.7 mb 0.00 in0.0 mm 0.00 in0.0 mm 0.00 in0.0 mm
06:25 PM 40.5°F4.7°C 24.7°F-4.1°C 53% Calm Calm 3.0 mph4.8 kmh 30.14 in1020.7 mb 0.00 in0.0 mm 0.00 in0.0 mm 0.00 in0.0 mm
06:30 PM 40.3°F4.6°C 25.4°F-3.7°C 55% Calm Calm 3.0 mph4.8 kmh 30.14 in1020.7 mb 0.00 in0.0 mm 0.00 in0.0 mm 0.00 in0.0 mm
06:35 PM 39.8°F4.3°C 25.4°F-3.7°C 56% Calm Calm -- 30.14 in1020.7 mb 0.00 in0.0 mm 0.00 in0.0 mm 0.00 in0.0 mm
06:40 PM 39.2°F4.0°C 25.3°F-3.7°C 57% 1.0 mph NW1.6 kmh NW 2.0 mph3.2 kmh 30.14 in1020.7 mb 0.00 in0.0 mm 0.00 in0.0 mm 0.00 in0.0 mm
06:45 PM 38.8°F3.8°C 25.3°F-3.7°C 58% Calm Calm 3.0 mph4.8 kmh 30.14 in1020.7 mb 0.00 in0.0 mm 0.00 in0.0 mm 0.00 in0.0 mm
06:50 PM 38.2°F3.4°C 25.2°F-3.8°C 59% 2.0 mph NW3.2 kmh NW 3.0 mph4.8 kmh 30.14 in1020.7 mb 0.00 in0.0 mm 0.00 in0.0 mm 0.00 in0.0 mm
06:55 PM 37.6°F3.1°C 25.0°F-3.9°C 60% 2.0 mph NW3.2 kmh NW 3.0 mph4.8 kmh 30.14 in1020.7 mb 0.00 in0.0 mm 0.00 in0.0 mm 0.00 in0.0 mm
07:05 PM 37.1°F2.8°C 24.9°F-3.9°C 61% Calm Calm 1.0 mph1.6 kmh 30.14 in1020.7 mb 0.00 in0.0 mm 0.00 in0.0 mm 0.00 in0.0 mm
07:10 PM 36.5°F2.5°C 24.7°F-4.1°C 62% Calm Calm 2.0 mph3.2 kmh 30.14 in1020.7 mb 0.00 in0.0 mm 0.00 in0.0 mm 0.00 in0.0 mm
07:15 PM 35.8°F2.1°C 24.8°F-4.0°C 64% Calm Calm 2.0 mph3.2 kmh 30.14 in1020.7 mb 0.00 in0.0 mm 0.00 in0.0 mm 0.00 in0.0 mm
07:20 PM 35.8°F2.1°C 24.8°F-4.0°C 64% 1.0 mph NW1.6 kmh NW 3.0 mph4.8 kmh 30.14 in1020.7 mb 0.00 in0.0 mm 0.00 in0.0 mm 0.00 in0.0 mm
07:25 PM 35.6°F2.0°C 24.6°F-4.1°C 64% Calm Calm 3.0 mph4.8 kmh 30.13 in1020.3 mb 0.00 in0.0 mm 0.00 in0.0 mm 0.00 in0.0 mm
07:30 PM 35.2°F1.8°C 24.6°F-4.1°C 65% Calm Calm 3.0 mph4.8 kmh 30.14 in1020.7 mb 0.00 in0.0 mm 0.00 in0.0 mm 0.00 in0.0 mm
07:35 PM 34.8°F1.6°C 24.6°F-4.1°C 66% Calm Calm -- 30.14 in1020.7 mb 0.00 in0.0 mm 0.00 in0.0 mm 0.00 in0.0 mm
07:40 PM 34.7°F1.5°C 24.5°F-4.2°C 66% Calm Calm -- 30.14 in1020.7 mb 0.00 in0.0 mm 0.00 in0.0 mm 0.00 in0.0 mm
07:45 PM 34.3°F1.3°C 24.5°F-4.2°C 67% Calm Calm -- 30.14 in1020.7 mb 0.00 in0.0 mm 0.00 in0.0 mm 0.00 in0.0 mm
07:50 PM 34.3°F1.3°C 24.9°F-3.9°C 68% Calm Calm -- 30.14 in1020.7 mb 0.00 in0.0 mm 0.00 in0.0 mm 0.00 in0.0 mm
07:55 PM 33.9°F1.1°C 24.5°F-4.2°C 68% Calm Calm -- 30.14 in1020.7 mb 0.00 in0.0 mm 0.00 in0.0 mm 0.00 in0.0 mm
08:00 PM 33.7°F0.9°C 25.0°F-3.9°C 70% Calm Calm -- 30.14 in1020.7 mb 0.00 in0.0 mm 0.00 in0.0 mm 0.00 in0.0 mm
08:05 PM 33.4°F0.8°C 24.7°F-4.1°C 70% Calm Calm -- 30.14 in1020.7 mb 0.00 in0.0 mm 0.00 in0.0 mm 0.00 in0.0 mm
08:10 PM 33.2°F0.7°C 25.2°F-3.8°C 72% Calm Calm -- 30.14 in1020.7 mb 0.00 in0.0 mm 0.00 in0.0 mm 0.00 in0.0 mm
08:15 PM 33.6°F0.9°C 25.6°F-3.6°C 72% 2.0 mph NW3.2 kmh NW 3.0 mph4.8 kmh 30.14 in1020.7 mb 0.00 in0.0 mm 0.00 in0.0 mm 0.00 in0.0 mm
08:20 PM 33.8°F1.0°C 25.4°F-3.7°C 71% 1.0 mph NW1.6 kmh NW 2.0 mph3.2 kmh 30.15 in1021.0 mb 0.00 in0.0 mm 0.00 in0.0 mm 0.00 in0.0 mm
08:25 PM 33.7°F0.9°C 25.7°F-3.5°C 72% 2.0 mph NW3.2 kmh NW 2.0 mph3.2 kmh 30.15 in1021.0 mb 0.00 in0.0 mm 0.00 in0.0 mm 0.00 in0.0 mm
08:30 PM 33.3°F0.7°C 25.3°F-3.7°C 72% Calm Calm 2.0 mph3.2 kmh 30.15 in1021.0 mb 0.00 in0.0 mm 0.00 in0.0 mm 0.00 in0.0 mm
08:35 PM 32.9°F0.5°C 25.2°F-3.8°C 73% Calm Calm 3.0 mph4.8 kmh 30.15 in1021.0 mb 0.00 in0.0 mm 0.00 in0.0 mm 0.00 in0.0 mm
08:40 PM 32.6°F0.3°C 25.3°F-3.7°C 74% Calm Calm 3.0 mph4.8 kmh 30.15 in1021.0 mb 0.00 in0.0 mm 0.00 in0.0 mm 0.00 in0.0 mm
08:45 PM 32.2°F0.1°C 25.2°F-3.8°C 75% 2.0 mph NW3.2 kmh NW 3.0 mph4.8 kmh 30.15 in1021.0 mb 0.00 in0.0 mm 0.00 in0.0 mm 0.00 in0.0 mm
08:50 PM 31.9°F-0.1°C 24.9°F-3.9°C 75% 1.0 mph NW1.6 kmh NW 3.0 mph4.8 kmh 30.15 in1021.0 mb 0.00 in0.0 mm 0.00 in0.0 mm 0.00 in0.0 mm
08:55 PM 31.4°F-0.3°C 24.7°F-4.1°C 76% Calm Calm 3.0 mph4.8 kmh 30.15 in1021.0 mb 0.00 in0.0 mm 0.00 in0.0 mm 0.00 in0.0 mm
09:00 PM 30.9°F-0.6°C 24.6°F-4.1°C 77% Calm Calm 3.0 mph4.8 kmh 30.15 in1021.0 mb 0.00 in0.0 mm 0.00 in0.0 mm 0.00 in0.0 mm
09:05 PM 30.6°F-0.8°C 24.6°F-4.1°C 78% Calm Calm -- 30.15 in1021.0 mb 0.00 in0.0 mm 0.00 in0.0 mm 0.00 in0.0 mm
09:10 PM 30.7°F-0.7°C 25.0°F-3.9°C 79% Calm Calm -- 30.15 in1021.0 mb 0.00 in0.0 mm 0.00 in0.0 mm 0.00 in0.0 mm
09:15 PM 30.7°F-0.7°C 25.0°F-3.9°C 79% Calm Calm -- 30.15 in1021.0 mb 0.00 in0.0 mm 0.00 in0.0 mm 0.00 in0.0 mm
09:20 PM 30.7°F-0.7°C 25.0°F-3.9°C 79% Calm Calm -- 30.15 in1021.0 mb 0.00 in0.0 mm 0.00 in0.0 mm 0.00 in0.0 mm
09:25 PM 30.8°F-0.7°C 25.1°F-3.8°C 79% Calm Calm -- 30.15 in1021.0 mb 0.00 in0.0 mm 0.00 in0.0 mm 0.00 in0.0 mm
09:30 PM 30.7°F-0.7°C 25.0°F-3.9°C 79% Calm Calm -- 30.15 in1021.0 mb 0.00 in0.0 mm 0.00 in0.0 mm 0.00 in0.0 mm
09:35 PM 30.9°F-0.6°C 25.2°F-3.8°C 79% Calm Calm -- 30.15 in1021.0 mb 0.00 in0.0 mm 0.00 in0.0 mm 0.00 in0.0 mm
09:40 PM 31.0°F-0.6°C 25.3°F-3.7°C 79% Calm Calm -- 30.15 in1021.0 mb 0.00 in0.0 mm 0.00 in0.0 mm 0.00 in0.0 mm
09:45 PM 30.9°F-0.6°C 24.9°F-3.9°C 78% Calm Calm -- 30.15 in1021.0 mb 0.00 in0.0 mm 0.00 in0.0 mm 0.00 in0.0 mm
09:50 PM 30.6°F-0.8°C 24.9°F-3.9°C 79% Calm Calm -- 30.15 in1021.0 mb 0.00 in0.0 mm 0.00 in0.0 mm 0.00 in0.0 mm
09:55 PM 30.5°F-0.8°C 24.8°F-4.0°C 79% Calm Calm -- 30.15 in1021.0 mb 0.00 in0.0 mm 0.00 in0.0 mm 0.00 in0.0 mm
10:00 PM 30.3°F-0.9°C 24.6°F-4.1°C 79% Calm Calm -- 30.15 in1021.0 mb 0.00 in0.0 mm 0.00 in0.0 mm 0.00 in0.0 mm
10:05 PM 29.8°F-1.2°C 24.1°F-4.4°C 79% Calm Calm -- 30.15 in1021.0 mb 0.00 in0.0 mm 0.00 in0.0 mm 0.00 in0.0 mm
10:10 PM 29.5°F-1.4°C 24.1°F-4.4°C 80% 1.0 mph NW1.6 kmh NW 2.0 mph3.2 kmh 30.15 in1021.0 mb 0.00 in0.0 mm 0.00 in0.0 mm 0.00 in0.0 mm
10:15 PM 29.5°F-1.4°C 24.4°F-4.2°C 81% 1.0 mph NW1.6 kmh NW 2.0 mph3.2 kmh 30.15 in1021.0 mb 0.00 in0.0 mm 0.00 in0.0 mm 0.00 in0.0 mm
10:20 PM 29.6°F-1.3°C 24.2°F-4.3°C 80% 2.0 mph SE3.2 kmh SE 3.0 mph4.8 kmh 30.15 in1021.0 mb 0.00 in0.0 mm 0.00 in0.0 mm 0.00 in0.0 mm
10:25 PM 30.3°F-0.9°C 24.3°F-4.3°C 78% 1.0 mph SE1.6 kmh SE 4.0 mph6.4 kmh 30.15 in1021.0 mb 0.00 in0.0 mm 0.00 in0.0 mm 0.00 in0.0 mm
10:30 PM 30.6°F-0.8°C 24.3°F-4.3°C 77% 2.0 mph SE3.2 kmh SE 4.0 mph6.4 kmh 30.15 in1021.0 mb 0.00 in0.0 mm 0.00 in0.0 mm 0.00 in0.0 mm
10:35 PM 30.4°F-0.9°C 24.1°F-4.4°C 77% Calm Calm 2.0 mph3.2 kmh 30.15 in1021.0 mb 0.00 in0.0 mm 0.00 in0.0 mm 0.00 in0.0 mm
10:40 PM 29.8°F-1.2°C 23.5°F-4.7°C 77% Calm Calm 2.0 mph3.2 kmh 30.15 in1021.0 mb 0.00 in0.0 mm 0.00 in0.0 mm 0.00 in0.0 mm
10:45 PM 29.2°F-1.6°C 23.2°F-4.9°C 78% Calm Calm 2.0 mph3.2 kmh 30.15 in1021.0 mb 0.00 in0.0 mm 0.00 in0.0 mm 0.00 in0.0 mm
10:50 PM 28.5°F-1.9°C 23.1°F-4.9°C 80% Calm Calm -- 30.15 in1021.0 mb 0.00 in0.0 mm 0.00 in0.0 mm 0.00 in0.0 mm
10:55 PM 28.2°F-2.1°C 23.1°F-4.9°C 81% Calm Calm -- 30.15 in1021.0 mb 0.00 in0.0 mm 0.00 in0.0 mm 0.00 in0.0 mm
11:00 PM 27.9°F-2.3°C 23.1°F-4.9°C 82% Calm Calm -- 30.15 in1021.0 mb 0.00 in0.0 mm 0.00 in0.0 mm 0.00 in0.0 mm
11:05 PM 28.0°F-2.2°C 23.2°F-4.9°C 82% Calm Calm -- 30.15 in1021.0 mb 0.00 in0.0 mm 0.00 in0.0 mm 0.00 in0.0 mm
11:10 PM 28.1°F-2.2°C 23.3°F-4.8°C 82% Calm Calm -- 30.15 in1021.0 mb 0.00 in0.0 mm 0.00 in0.0 mm 0.00 in0.0 mm
11:15 PM 28.2°F-2.1°C 23.1°F-4.9°C 81% 1.0 mph SE1.6 kmh SE 3.0 mph4.8 kmh 30.15 in1021.0 mb 0.00 in0.0 mm 0.00 in0.0 mm 0.00 in0.0 mm
11:20 PM 28.1°F-2.2°C 23.0°F-5.0°C 81% Calm Calm 3.0 mph4.8 kmh 30.15 in1021.0 mb 0.00 in0.0 mm 0.00 in0.0 mm 0.00 in0.0 mm
11:25 PM 28.1°F-2.2°C 23.0°F-5.0°C 81% 1.0 mph SE1.6 kmh SE 3.0 mph4.8 kmh 30.15 in1021.0 mb 0.00 in0.0 mm 0.00 in0.0 mm 0.00 in0.0 mm
11:30 PM 28.0°F-2.2°C 22.6°F-5.2°C 80% 2.0 mph SE3.2 kmh SE 3.0 mph4.8 kmh 30.15 in1021.0 mb 0.00 in0.0 mm 0.00 in0.0 mm 0.00 in0.0 mm
11:35 PM 27.8°F-2.3°C 22.4°F-5.3°C 80% 1.0 mph SE1.6 kmh SE 3.0 mph4.8 kmh 30.15 in1021.0 mb 0.00 in0.0 mm 0.00 in0.0 mm 0.00 in0.0 mm
11:40 PM 28.0°F-2.2°C 22.6°F-5.2°C 80% 1.0 mph SE1.6 kmh SE 3.0 mph4.8 kmh 30.16 in1021.3 mb 0.00 in0.0 mm 0.00 in0.0 mm 0.00 in0.0 mm
11:45 PM 28.0°F-2.2°C 22.6°F-5.2°C 80% 2.0 mph SE3.2 kmh SE 4.0 mph6.4 kmh 30.16 in1021.3 mb 0.00 in0.0 mm 0.00 in0.0 mm 0.00 in0.0 mm
11:50 PM 28.1°F-2.2°C 22.4°F-5.3°C 79% 2.0 mph SE3.2 kmh SE 3.0 mph4.8 kmh 30.16 in1021.3 mb 0.00 in0.0 mm 0.00 in0.0 mm 0.00 in0.0 mm
11:55 PM 28.2°F-2.1°C 22.5°F-5.3°C 79% 1.0 mph SE1.6 kmh SE 3.0 mph4.8 kmh 30.16 in1021.3 mb 0.00 in0.0 mm 0.00 in0.0 mm 0.00 in0.0 mm